8A0

Albertville Regional-Thomas J Brumlik Field Airport

Albertville, Alabama, USA
METAR K8A0 180835Z AUTO 22009KT 10SM OVC006 22/22 A3008 RMK AO2
Observed Flight Rules
Aug-18 @ 08:35 UTC (16 minutes ago) Instrument Flight Rules
Wind Visibility Clouds
220° at 9 knots 10 miles
  • Overcast at 600' AGL
Temperatures Readings
Current 22°C / 72°F
Dewpoint 22°C / 72°F
Humidity 100%
Altimeter 30.08" Hg
Pressure 1019 hPa
Elevation 315
METAR K8A0 180835Z AUTO 22009KT 10SM OVC006 22/22 A3008 RMK AO2
Observed Flight Rules
Aug-18 @ 08:35 UTC
(16 minutes ago)
IFR
Wind Visibility
220° at 9 knots 10 miles
Clouds
  • Overcast at 600' AGL
Temperature Dewpoint
22°C / 72°F 22°C / 72°F
Humidity Altimeter Pressure
100% 30.08" Hg 1019 hPa